createdAt,value
2018-09-08T00:04:58.725Z,16.20
2018-09-08T00:07:32.626Z,16.20
2018-09-08T00:10:01.162Z,16.20
2018-09-08T00:12:30.445Z,16.10
2018-09-08T00:15:04.256Z,16.20
2018-09-08T00:17:39.202Z,16.20
2018-09-08T00:20:13.169Z,16.10
2018-09-08T00:22:46.912Z,16.10
2018-09-08T00:30:11.885Z,16.20
2018-09-08T00:32:40.421Z,16.00
2018-09-08T00:35:08.997Z,16.00
2018-09-08T00:37:37.619Z,16.10
2018-09-08T00:40:06.134Z,16.10
2018-09-08T00:42:34.636Z,16.00
2018-09-08T00:45:03.162Z,16.00
2018-09-08T00:47:31.663Z,16.00
2018-09-08T00:50:00.306Z,16.00
2018-09-08T00:52:28.890Z,16.00
2018-09-08T00:54:57.413Z,16.00
2018-09-08T00:57:28.207Z,16.00
2018-09-08T00:59:56.754Z,16.10
2018-09-08T01:02:25.234Z,16.10
2018-09-08T01:04:53.725Z,16.10
2018-09-08T01:07:27.559Z,16.10
2018-09-08T01:09:57.699Z,16.20
2018-09-08T01:12:26.841Z,16.20
2018-09-08T01:14:56.963Z,16.20
2018-09-08T01:17:25.634Z,16.20
2018-09-08T01:19:54.343Z,16.20
2018-09-08T01:22:22.930Z,16.20
2018-09-08T01:24:51.521Z,16.20
2018-09-08T01:27:20.077Z,16.20
2018-09-08T01:29:48.617Z,16.30
2018-09-08T01:32:17.574Z,16.20
2018-09-08T01:34:46.285Z,16.10
2018-09-08T01:43:14.514Z,15.90
2018-09-08T01:45:43.011Z,15.60
2018-09-08T01:48:11.754Z,15.60
2018-09-08T01:50:40.386Z,15.40
2018-09-08T01:53:08.925Z,15.40
2018-09-08T01:55:37.587Z,15.40
2018-09-08T01:58:06.200Z,15.40
2018-09-08T02:00:34.761Z,15.40
2018-09-08T02:03:03.456Z,15.40
2018-09-08T02:05:32.480Z,15.40
2018-09-08T02:08:00.984Z,15.40
2018-09-08T02:10:30.202Z,15.40
2018-09-08T02:12:58.779Z,15.30
2018-09-08T02:15:27.706Z,15.30
2018-09-08T02:17:56.302Z,15.20
2018-09-08T02:20:24.845Z,15.10
2018-09-08T02:22:53.562Z,15.10
2018-09-08T02:25:22.205Z,15.10
2018-09-08T02:27:51.848Z,15.00
2018-09-08T02:30:20.365Z,15.00
2018-09-08T02:32:48.854Z,14.90
2018-09-08T02:35:17.563Z,14.90
2018-09-08T02:37:46.046Z,14.90
2018-09-08T02:45:11.918Z,15.00
2018-09-08T02:47:40.400Z,14.90
2018-09-08T02:50:20.198Z,15.00
2018-09-08T02:52:47.549Z,15.00
2018-09-08T02:55:16.461Z,15.10
2018-09-08T02:57:43.845Z,15.10
2018-09-08T03:00:11.219Z,15.20
2018-09-08T03:02:38.601Z,15.10
2018-09-08T03:05:06.570Z,15.20
2018-09-08T03:07:33.945Z,15.20
2018-09-08T03:10:01.287Z,15.20
2018-09-08T03:12:28.967Z,15.20
2018-09-08T03:14:56.326Z,15.20
2018-09-08T03:17:24.301Z,15.20
2018-09-08T03:19:51.887Z,15.20
2018-09-08T03:22:19.293Z,15.20
2018-09-08T03:24:46.644Z,15.20
2018-09-08T03:32:14.166Z,15.20
2018-09-08T03:34:41.589Z,15.20
2018-09-08T03:37:09.327Z,15.10
2018-09-08T03:39:36.769Z,15.00
2018-09-08T03:42:04.190Z,15.10
2018-09-08T03:44:31.911Z,15.10
2018-09-08T03:46:59.402Z,15.00
2018-09-08T03:49:26.762Z,15.00
2018-09-08T03:51:54.141Z,15.00
2018-09-08T03:54:22.554Z,15.00
2018-09-08T03:56:49.931Z,15.00
2018-09-08T03:59:17.294Z,15.00
2018-09-08T04:01:44.783Z,15.00
2018-09-08T04:04:13.601Z,14.90
2018-09-08T04:06:42.806Z,14.90
2018-09-08T04:09:12.025Z,14.80
2018-09-08T04:11:40.666Z,14.80
2018-09-08T04:14:09.614Z,14.80
2018-09-08T04:16:38.594Z,14.70
2018-09-08T04:19:08.338Z,14.80
2018-09-08T04:21:36.958Z,14.70
2018-09-08T04:24:06.834Z,14.70
2018-09-08T04:26:35.442Z,14.60
2018-09-08T04:29:03.976Z,14.60
2018-09-08T04:31:32.613Z,14.60
2018-09-08T04:34:01.292Z,14.50
2018-09-08T04:36:29.937Z,14.40
2018-09-08T04:38:58.529Z,14.40
2018-09-08T04:41:27.143Z,14.40
2018-09-08T04:43:55.678Z,14.40
2018-09-08T04:46:24.266Z,14.40
2018-09-08T04:48:53.336Z,14.30
2018-09-08T04:51:21.818Z,14.20
2018-09-08T04:53:50.349Z,14.20
2018-09-08T04:56:18.831Z,14.10
2018-09-08T04:58:48.419Z,14.20
2018-09-08T05:01:17.974Z,14.20
2018-09-08T05:03:46.515Z,14.20
2018-09-08T05:11:13.446Z,14.30
2018-09-08T05:13:41.945Z,14.40
2018-09-08T05:16:10.469Z,14.50
2018-09-08T05:18:39.394Z,14.70
2018-09-08T05:21:08.783Z,14.80
2018-09-08T05:23:37.355Z,14.80
2018-09-08T05:26:05.865Z,14.90
2018-09-08T05:28:34.364Z,14.90
2018-09-08T05:31:02.846Z,15.00
2018-09-08T05:33:31.457Z,15.00
2018-09-08T05:35:59.982Z,15.20
2018-09-08T05:38:28.517Z,15.20
2018-09-08T05:40:57.561Z,15.20
2018-09-08T05:43:26.086Z,15.30
2018-09-08T05:45:55.001Z,15.30
2018-09-08T05:48:23.495Z,15.50
2018-09-08T05:50:52.001Z,15.70
2018-09-08T05:53:20.486Z,15.90
2018-09-08T05:55:48.993Z,16.00
2018-09-08T05:58:17.530Z,16.00
2018-09-08T06:00:46.057Z,16.00
2018-09-08T06:08:07.782Z,16.30
2018-09-08T06:10:36.529Z,16.60
2018-09-08T06:13:05.106Z,16.70
2018-09-08T06:15:33.741Z,16.90
2018-09-08T06:18:02.967Z,17.10
2018-09-08T06:20:31.470Z,17.20
2018-09-08T06:23:00.570Z,17.40
2018-09-08T06:25:29.104Z,17.50
2018-09-08T06:28:00.046Z,17.60
2018-09-08T06:30:30.646Z,17.80
2018-09-08T06:32:59.817Z,18.00
2018-09-08T06:35:28.383Z,18.20
2018-09-08T06:37:57.013Z,18.50
2018-09-08T06:40:25.597Z,18.60
2018-09-08T06:42:54.219Z,18.70
2018-09-08T06:45:22.763Z,18.80
2018-09-08T06:47:51.265Z,18.90
2018-09-08T06:50:19.806Z,19.00
2018-09-08T06:52:49.582Z,19.20
2018-09-08T06:55:18.382Z,19.40
2018-09-08T06:57:46.904Z,19.90
2018-09-08T07:10:16.896Z,24.10
2018-09-08T07:12:45.411Z,27.10
2018-09-08T07:20:08.798Z,28.70
2018-09-08T07:22:37.309Z,29.00
2018-09-08T07:25:08.521Z,28.20
2018-09-08T07:27:37.155Z,28.20
2018-09-08T07:30:05.738Z,28.60
2018-09-08T07:32:34.211Z,29.20
2018-09-08T07:35:02.734Z,30.00
2018-09-08T07:37:31.285Z,30.70
2018-09-08T07:39:59.781Z,30.90
2018-09-08T07:42:28.265Z,31.40
2018-09-08T07:44:56.751Z,31.40
2018-09-08T07:47:25.546Z,32.10
2018-09-08T07:49:58.372Z,32.70
2018-09-08T07:52:26.880Z,33.40
2018-09-08T07:54:55.381Z,33.60
2018-09-08T07:57:23.882Z,34.40
2018-09-08T07:59:52.437Z,35.00
2018-09-08T08:02:20.930Z,34.60
2018-09-08T08:04:50.402Z,34.00
2018-09-08T08:07:18.885Z,32.60
2018-09-08T08:09:47.375Z,30.90
2018-09-08T08:12:17.998Z,29.60
2018-09-08T08:14:46.542Z,28.90
2018-09-08T08:22:09.264Z,27.60
2018-09-08T08:24:37.963Z,26.20
2018-09-08T08:27:07.183Z,27.30
2018-09-08T08:29:35.809Z,28.90
2018-09-08T08:32:04.330Z,29.80
2018-09-08T08:34:32.853Z,30.60
2018-09-08T08:37:01.398Z,31.10
2018-09-08T08:39:31.380Z,31.50
2018-09-08T08:42:01.749Z,32.50
2018-09-08T08:44:30.278Z,33.20
2018-09-08T08:46:58.757Z,33.50
2018-09-08T08:49:27.238Z,34.40
2018-09-08T08:52:07.245Z,35.30
2018-09-08T08:54:43.725Z,36.30
2018-09-08T08:57:12.241Z,37.20
2018-09-08T08:59:42.873Z,37.20
2018-09-08T09:02:11.354Z,38.00
2018-09-08T09:04:40.044Z,37.80
2018-09-08T09:07:12.078Z,37.50
2018-09-08T09:09:41.982Z,37.50
2018-09-08T09:12:10.755Z,38.00
2018-09-08T09:14:39.345Z,38.60
2018-09-08T09:17:07.879Z,39.20
2018-09-08T09:19:47.626Z,39.20
2018-09-08T09:22:28.562Z,39.40
2018-09-08T09:25:07.479Z,39.50
2018-09-08T09:27:38.994Z,39.60
2018-09-08T09:30:08.434Z,39.70
2018-09-08T09:32:36.935Z,39.30
2018-09-08T09:35:06.104Z,39.50
2018-09-08T09:37:34.598Z,39.60
2018-09-08T09:40:03.122Z,40.30
2018-09-08T09:42:32.066Z,40.90
2018-09-08T09:45:01.279Z,40.70
2018-09-08T09:47:29.783Z,41.30
2018-09-08T09:49:58.590Z,41.30
2018-09-08T09:52:28.255Z,41.00
2018-09-08T09:54:56.864Z,40.20
2018-09-08T09:57:25.578Z,39.80
2018-09-08T09:59:54.151Z,38.70
2018-09-08T10:02:36.701Z,37.80
2018-09-08T10:05:05.228Z,37.50
2018-09-08T10:07:33.708Z,36.10
2018-09-08T10:10:02.399Z,34.60
2018-09-08T10:12:30.895Z,33.30
2018-09-08T10:14:59.728Z,32.30
2018-09-08T10:17:28.287Z,31.50
2018-09-08T10:19:56.946Z,31.20
2018-09-08T10:22:25.578Z,30.30
2018-09-08T10:24:54.703Z,29.30
2018-09-08T10:27:23.299Z,28.40
2018-09-08T10:29:53.858Z,27.20
2018-09-08T10:32:22.562Z,26.80
2018-09-08T10:34:51.178Z,26.50
2018-09-08T10:37:21.241Z,26.20
2018-09-08T10:39:50.523Z,25.90
2018-09-08T10:42:19.142Z,25.80
2018-09-08T10:44:47.683Z,25.50
2018-09-08T10:52:36.725Z,24.60
2018-09-08T10:55:05.285Z,24.50
2018-09-08T10:57:33.936Z,24.30
2018-09-08T11:00:03.303Z,24.30
2018-09-08T11:02:32.245Z,24.30
2018-09-08T11:05:01.327Z,24.20
2018-09-08T11:07:30.150Z,24.30
2018-09-08T11:09:58.804Z,24.20
2018-09-08T11:12:27.321Z,24.30
2018-09-08T11:14:56.569Z,24.10
2018-09-08T11:17:25.278Z,24.20
2018-09-08T11:19:53.965Z,24.20
2018-09-08T11:22:22.961Z,24.30
2018-09-08T11:24:52.062Z,24.30
2018-09-08T11:27:20.526Z,24.10
2018-09-08T11:29:49.289Z,24.10
2018-09-08T11:32:18.491Z,24.10
2018-09-08T11:34:47.033Z,24.10
2018-09-08T11:43:13.732Z,24.20
2018-09-08T11:45:42.382Z,24.30
2018-09-08T11:48:10.902Z,24.40
2018-09-08T11:50:39.517Z,24.50
2018-09-08T11:53:07.992Z,24.70
2018-09-08T11:55:36.628Z,24.60
2018-09-08T11:58:05.177Z,24.40
2018-09-08T12:00:33.802Z,24.00
2018-09-08T12:03:02.349Z,24.00
2018-09-08T12:05:31.275Z,24.00
2018-09-08T12:07:59.796Z,23.90
2018-09-08T12:10:28.304Z,23.80
2018-09-08T12:12:56.814Z,23.70
2018-09-08T12:15:25.334Z,23.50
2018-09-08T12:17:53.783Z,23.40
2018-09-08T12:20:22.286Z,23.20
2018-09-08T12:22:50.802Z,23.30
2018-09-08T12:25:19.352Z,23.40
2018-09-08T12:27:47.890Z,23.40
2018-09-08T12:35:09.657Z,23.70
2018-09-08T12:37:39.448Z,23.50
2018-09-08T12:40:08.437Z,23.40
2018-09-08T12:42:37.237Z,23.50
2018-09-08T12:45:06.208Z,23.70
2018-09-08T12:47:37.364Z,23.80
2018-09-08T12:50:07.520Z,23.80
2018-09-08T12:52:36.222Z,23.80
2018-09-08T12:55:04.788Z,23.80
2018-09-08T12:57:33.418Z,23.80
2018-09-08T13:00:01.975Z,23.90
2018-09-08T13:02:30.834Z,24.00
2018-09-08T13:04:59.490Z,23.90
2018-09-08T13:07:27.966Z,23.70
2018-09-08T13:09:57.096Z,23.60
2018-09-08T13:12:26.203Z,23.50
2018-09-08T13:14:54.698Z,23.40
2018-09-08T13:17:24.030Z,23.30
2018-09-08T13:19:54.438Z,23.40
2018-09-08T13:22:22.998Z,23.60
2018-09-08T13:24:52.123Z,23.80
2018-09-08T13:27:20.684Z,24.00
2018-09-08T13:29:49.209Z,24.10
2018-09-08T13:32:17.818Z,24.20
2018-09-08T13:34:47.295Z,24.20
2018-09-08T13:37:18.326Z,24.10
2018-09-08T13:39:47.099Z,24.00
2018-09-08T13:47:09.855Z,23.80
2018-09-08T13:49:39.861Z,23.70
2018-09-08T13:52:08.340Z,23.60
2018-09-08T13:54:38.097Z,23.50
2018-09-08T13:57:06.684Z,23.50
2018-09-08T13:59:35.453Z,23.40
2018-09-08T14:02:03.994Z,23.40
2018-09-08T14:04:32.729Z,23.30
2018-09-08T14:07:01.358Z,23.30
2018-09-08T14:09:30.006Z,23.20
2018-09-08T14:11:58.479Z,23.10
2018-09-08T14:14:27.263Z,23.20
2018-09-08T14:16:58.719Z,23.30
2018-09-08T14:19:27.541Z,23.50
2018-09-08T14:21:57.268Z,23.60
2018-09-08T14:24:25.819Z,23.70
2018-09-08T14:26:54.402Z,23.90
2018-09-08T14:29:22.877Z,23.80
2018-09-08T14:31:51.379Z,23.80
2018-09-08T14:34:19.882Z,23.80
2018-09-08T14:36:48.388Z,23.70
2018-09-08T14:39:18.752Z,23.80
2018-09-08T14:41:47.393Z,23.90
2018-09-08T14:44:17.327Z,23.90
2018-09-08T14:46:46.621Z,23.90
2018-09-08T14:58:55.474Z,23.90
2018-09-08T15:01:23.986Z,23.90
2018-09-08T15:03:52.490Z,23.60
2018-09-08T15:06:22.564Z,23.60
2018-09-08T15:08:51.109Z,23.70
2018-09-08T15:11:20.063Z,23.70
2018-09-08T15:13:48.975Z,23.70
2018-09-08T15:16:17.501Z,23.70
2018-09-08T15:18:46.132Z,23.80
2018-09-08T15:38:20.212Z,23.90
2018-09-08T15:40:49.845Z,23.90
2018-09-08T15:43:18.335Z,23.60
2018-09-08T15:45:46.922Z,23.60
2018-09-08T15:54:15.421Z,23.60
2018-09-08T15:56:44.639Z,23.60
2018-09-08T15:59:13.108Z,23.50
2018-09-08T16:01:42.297Z,23.50
2018-09-08T16:04:16.455Z,23.60
2018-09-08T16:06:45.029Z,23.60
2018-09-08T16:19:16.801Z,23.60
2018-09-08T16:21:45.285Z,23.60
2018-09-08T16:34:16.798Z,23.20
2018-09-08T16:36:45.318Z,23.20
2018-09-08T16:58:20.298Z,23.00
2018-09-08T17:00:49.279Z,22.90
2018-09-08T17:03:17.902Z,22.40
2018-09-08T17:05:46.390Z,22.30
2018-09-08T17:18:26.739Z,22.30
2018-09-08T17:20:55.294Z,22.20
2018-09-08T17:23:23.845Z,21.60
2018-09-08T17:25:52.402Z,21.40
2018-09-08T17:28:21.495Z,21.30
2018-09-08T17:30:50.186Z,21.10
2018-09-08T17:33:18.686Z,21.10
2018-09-08T17:35:47.145Z,20.90
2018-09-08T17:38:18.433Z,20.80
2018-09-08T17:40:47.562Z,20.80
2018-09-08T17:43:17.394Z,20.60
2018-09-08T17:45:46.337Z,20.50
2018-09-08T17:53:13.973Z,20.30
2018-09-08T17:55:42.453Z,20.10
2018-09-08T17:58:10.954Z,20.00
2018-09-08T18:00:40.674Z,19.90
2018-09-08T18:03:09.753Z,19.90
2018-09-08T18:05:39.032Z,19.80
2018-09-08T18:08:07.530Z,19.70
2018-09-08T18:10:36.166Z,19.60
2018-09-08T18:13:04.665Z,19.60
2018-09-08T18:15:33.342Z,19.50
2018-09-08T18:18:01.862Z,19.50
2018-09-08T18:20:30.373Z,19.40
2018-09-08T18:22:59.511Z,19.20
2018-09-08T18:25:28.113Z,19.20
2018-09-08T18:27:56.578Z,19.10
2018-09-08T18:30:25.888Z,19.10
2018-09-08T18:32:54.545Z,19.00
2018-09-08T18:35:22.970Z,19.00
2018-09-08T18:37:51.508Z,18.90
2018-09-08T18:40:20.403Z,18.90
2018-09-08T18:42:48.990Z,18.80
2018-09-08T18:45:17.633Z,18.80
2018-09-08T18:47:46.115Z,18.60
2018-09-08T18:55:08.579Z,18.50
2018-09-08T18:57:37.130Z,18.50
2018-09-08T19:05:00.823Z,18.30
2018-09-08T19:07:29.410Z,18.20
2018-09-08T19:10:03.406Z,18.10
2018-09-08T19:12:32.326Z,18.00
2018-09-08T19:15:06.405Z,17.90
2018-09-08T19:17:35.307Z,17.90
2018-09-08T19:20:09.575Z,17.90
2018-09-08T19:22:38.070Z,17.90
2018-09-08T19:25:06.817Z,17.90
2018-09-08T19:27:35.321Z,17.80
2018-09-08T19:30:04.130Z,17.80
2018-09-08T19:32:32.610Z,17.70
2018-09-08T19:35:06.487Z,17.70
2018-09-08T19:37:36.063Z,17.80
2018-09-08T19:40:09.491Z,17.70
2018-09-08T19:42:37.974Z,17.70
2018-09-08T19:45:07.297Z,17.60
2018-09-08T19:47:41.111Z,17.60
2018-09-08T19:50:09.624Z,17.60
2018-09-08T19:52:46.080Z,17.50
2018-09-08T20:00:13.362Z,17.50
2018-09-08T20:02:41.906Z,17.40
2018-09-08T20:05:10.481Z,17.40
2018-09-08T20:07:39.033Z,17.40
2018-09-08T20:10:07.638Z,17.30
2018-09-08T20:12:36.213Z,17.30
2018-09-08T20:15:04.912Z,17.20
2018-09-08T20:17:33.454Z,17.30
2018-09-08T20:20:01.930Z,17.20
2018-09-08T20:22:31.059Z,17.10
2018-09-08T20:24:59.725Z,17.10
2018-09-08T20:27:28.984Z,17.20
2018-09-08T20:29:58.259Z,17.20
2018-09-08T20:32:27.103Z,17.10
2018-09-08T20:34:55.655Z,17.10
2018-09-08T20:37:24.166Z,17.10
2018-09-08T20:39:52.645Z,17.10
2018-09-08T20:42:21.157Z,17.10
2018-09-08T20:44:50.292Z,17.00
2018-09-08T20:47:19.329Z,17.10
2018-09-08T20:49:47.822Z,17.00
2018-09-08T20:52:17.410Z,16.90
2018-09-08T20:54:46.215Z,16.90
2018-09-08T21:02:09.203Z,16.80
2018-09-08T21:04:37.814Z,16.60
2018-09-08T21:07:07.691Z,16.60
2018-09-08T21:09:36.348Z,16.50
2018-09-08T21:12:04.866Z,16.50
2018-09-08T21:14:33.330Z,16.50
2018-09-08T21:17:01.833Z,16.40
2018-09-08T21:19:30.330Z,16.40
2018-09-08T21:21:58.805Z,16.40
2018-09-08T21:24:27.629Z,16.30
2018-09-08T21:26:56.114Z,16.30
2018-09-08T21:29:24.625Z,16.30
2018-09-08T21:31:53.162Z,16.30
2018-09-08T21:34:21.706Z,16.20
2018-09-08T21:36:50.935Z,16.20
2018-09-08T21:39:20.681Z,16.20
2018-09-08T21:41:49.232Z,16.10
2018-09-08T21:44:18.124Z,16.10
2018-09-08T21:46:48.377Z,16.10
2018-09-08T21:49:17.375Z,16.10
2018-09-08T21:51:46.525Z,16.00
2018-09-08T21:59:10.346Z,15.90
2018-09-08T22:01:41.702Z,15.70
2018-09-08T22:04:10.498Z,15.70
2018-09-08T22:06:39.629Z,15.60
2018-09-08T22:09:09.218Z,15.50
2018-09-08T22:11:37.912Z,15.50
2018-09-08T22:14:07.342Z,15.50
2018-09-08T22:16:37.151Z,15.60
2018-09-08T22:19:06.704Z,15.60
2018-09-08T22:21:35.342Z,15.50
2018-09-08T22:24:03.837Z,15.50
2018-09-08T22:26:32.479Z,15.50
2018-09-08T22:29:01.097Z,15.40
2018-09-08T22:31:29.905Z,15.40
2018-09-08T22:33:59.195Z,15.40
2018-09-08T22:36:27.748Z,15.40
2018-09-08T22:38:56.507Z,15.40
2018-09-08T22:41:25.029Z,15.40
2018-09-08T22:43:53.550Z,15.40
2018-09-08T22:46:22.049Z,15.30
2018-09-08T22:48:50.502Z,15.20
2018-09-08T22:51:19.088Z,15.10
2018-09-08T22:53:47.951Z,15.10
2018-09-08T22:56:17.478Z,15.10
2018-09-08T22:58:46.157Z,15.00
2018-09-08T23:06:11.626Z,15.00
2018-09-08T23:08:40.821Z,15.00
2018-09-08T23:11:09.306Z,14.90
2018-09-08T23:13:37.870Z,14.90
2018-09-08T23:16:06.373Z,14.90
2018-09-08T23:18:35.178Z,14.80
2018-09-08T23:21:04.084Z,14.80
2018-09-08T23:23:32.758Z,14.80
2018-09-08T23:26:01.889Z,14.70
2018-09-08T23:28:30.444Z,14.70
2018-09-08T23:30:59.325Z,14.60
2018-09-08T23:33:27.848Z,14.60
2018-09-08T23:35:56.682Z,14.60
2018-09-08T23:38:25.382Z,14.60
2018-09-08T23:40:54.091Z,14.60
2018-09-08T23:43:22.648Z,14.60
2018-09-08T23:45:51.161Z,14.50
2018-09-08T23:48:20.073Z,14.40
2018-09-08T23:50:48.597Z,14.40
2018-09-08T23:53:17.367Z,14.40
2018-09-08T23:55:45.995Z,14.40
